sensor_id;sensor_type;location;lat;lon;timestamp;P1;durP1;ratioP1;P2;durP2;ratioP2
36651;SDS011;53334;51.976;20.144;2022-11-02T09:28:16;23.85;;;18.42;;
36651;SDS011;53334;51.976;20.144;2022-11-02T09:30:50;26.25;;;17.30;;
36651;SDS011;53334;51.976;20.144;2022-11-02T09:33:24;25.05;;;16.10;;
36651;SDS011;53334;51.976;20.144;2022-11-02T09:36:00;18.58;;;15.88;;
36651;SDS011;53334;51.976;20.144;2022-11-02T09:38:35;26.50;;;17.55;;
36651;SDS011;53334;51.976;20.144;2022-11-02T09:41:13;27.80;;;17.95;;
36651;SDS011;53334;51.976;20.144;2022-11-02T09:43:57;24.52;;;16.73;;
36651;SDS011;53334;51.976;20.144;2022-11-02T09:46:35;24.20;;;17.20;;
36651;SDS011;53334;51.976;20.144;2022-11-02T09:49:11;21.38;;;15.95;;
36651;SDS011;53334;51.976;20.144;2022-11-02T09:51:49;29.95;;;17.90;;
36651;SDS011;53334;51.976;20.144;2022-11-02T09:54:26;25.30;;;18.63;;
36651;SDS011;53334;51.976;20.144;2022-11-02T09:57:03;24.23;;;17.10;;
36651;SDS011;53334;51.976;20.144;2022-11-02T09:59:42;21.27;;;17.85;;
36651;SDS011;53334;51.976;20.144;2022-11-02T10:02:19;26.85;;;18.23;;
36651;SDS011;53334;51.976;20.144;2022-11-02T10:05:07;22.40;;;15.60;;
36651;SDS011;53334;51.976;20.144;2022-11-02T10:10:54;23.35;;;17.02;;
36651;SDS011;53334;51.976;20.144;2022-11-02T10:13:40;27.92;;;16.60;;
36651;SDS011;53334;51.976;20.144;2022-11-02T10:16:26;27.10;;;17.55;;
36651;SDS011;53334;51.976;20.144;2022-11-02T10:19:08;24.17;;;16.77;;
36651;SDS011;53334;51.976;20.144;2022-11-02T10:21:46;24.13;;;17.85;;
36651;SDS011;53334;51.976;20.144;2022-11-02T10:24:23;21.98;;;16.38;;
36651;SDS011;53334;51.976;20.144;2022-11-02T10:26:58;23.05;;;15.95;;
36651;SDS011;53334;51.976;20.144;2022-11-02T10:29:38;23.33;;;16.58;;
36651;SDS011;53334;51.976;20.144;2022-11-02T10:32:18;26.73;;;16.70;;
36651;SDS011;53334;51.976;20.144;2022-11-02T10:34:52;22.25;;;16.15;;
36651;SDS011;53334;51.976;20.144;2022-11-02T10:37:51;23.33;;;15.32;;
36651;SDS011;53334;51.976;20.144;2022-11-02T10:40:47;28.23;;;18.15;;
36651;SDS011;53334;51.976;20.144;2022-11-02T10:43:34;22.48;;;16.17;;
36651;SDS011;53334;51.976;20.144;2022-11-02T10:46:29;22.80;;;17.10;;
36651;SDS011;53334;51.976;20.144;2022-11-02T10:49:25;22.42;;;14.55;;
36651;SDS011;53334;51.976;20.144;2022-11-02T10:52:17;22.48;;;16.00;;
36651;SDS011;53334;51.976;20.144;2022-11-02T10:54:52;24.05;;;15.10;;
36651;SDS011;53334;51.976;20.144;2022-11-02T10:57:26;24.02;;;15.52;;
36651;SDS011;53334;51.976;20.144;2022-11-02T11:03:10;18.10;;;14.93;;
36651;SDS011;53334;51.976;20.144;2022-11-02T11:05:58;22.05;;;13.80;;
36651;SDS011;53334;51.976;20.144;2022-11-02T11:08:35;22.83;;;15.63;;
36651;SDS011;53334;51.976;20.144;2022-11-02T11:11:16;24.55;;;14.85;;
36651;SDS011;53334;51.976;20.144;2022-11-02T11:13:54;19.00;;;14.15;;
36651;SDS011;53334;51.976;20.144;2022-11-02T11:16:51;20.70;;;13.15;;
36651;SDS011;53334;51.976;20.144;2022-11-02T11:19:32;24.40;;;13.60;;
36651;SDS011;53334;51.976;20.144;2022-11-02T11:22:27;18.45;;;12.20;;
36651;SDS011;53334;51.976;20.144;2022-11-02T11:25:17;19.42;;;12.05;;
36651;SDS011;53334;51.976;20.144;2022-11-02T11:27:58;18.77;;;12.07;;
36651;SDS011;53334;51.976;20.144;2022-11-02T11:30:33;16.58;;;11.60;;
36651;SDS011;53334;51.976;20.144;2022-11-02T11:33:29;18.38;;;12.10;;
36651;SDS011;53334;51.976;20.144;2022-11-02T11:36:05;15.10;;;11.82;;
36651;SDS011;53334;51.976;20.144;2022-11-02T11:38:45;18.52;;;11.52;;
36651;SDS011;53334;51.976;20.144;2022-11-02T11:41:21;21.92;;;13.18;;
36651;SDS011;53334;51.976;20.144;2022-11-02T11:43:56;15.32;;;12.38;;
36651;SDS011;53334;51.976;20.144;2022-11-02T11:46:37;17.08;;;12.98;;
36651;SDS011;53334;51.976;20.144;2022-11-02T11:49:16;16.40;;;10.45;;
36651;SDS011;53334;51.976;20.144;2022-11-02T11:52:16;22.77;;;12.90;;
36651;SDS011;53334;51.976;20.144;2022-11-02T11:55:17;19.98;;;11.90;;
36651;SDS011;53334;51.976;20.144;2022-11-02T11:58:06;15.02;;;11.98;;
36651;SDS011;53334;51.976;20.144;2022-11-02T12:01:00;15.50;;;11.82;;
36651;SDS011;53334;51.976;20.144;2022-11-02T12:03:51;18.60;;;13.23;;
36651;SDS011;53334;51.976;20.144;2022-11-02T12:06:28;14.95;;;12.82;;
36651;SDS011;53334;51.976;20.144;2022-11-02T12:09:11;18.08;;;12.95;;
36651;SDS011;53334;51.976;20.144;2022-11-02T12:11:56;19.88;;;13.35;;
36651;SDS011;53334;51.976;20.144;2022-11-02T12:14:40;14.50;;;12.77;;
36651;SDS011;53334;51.976;20.144;2022-11-02T12:17:28;18.35;;;13.10;;
36651;SDS011;53334;51.976;20.144;2022-11-02T12:22:49;17.23;;;13.05;;
36651;SDS011;53334;51.976;20.144;2022-11-02T12:25:39;16.48;;;12.02;;
36651;SDS011;53334;51.976;20.144;2022-11-02T12:28:27;17.38;;;13.43;;
36651;SDS011;53334;51.976;20.144;2022-11-02T12:31:09;18.45;;;14.07;;
36651;SDS011;53334;51.976;20.144;2022-11-02T12:34:00;19.75;;;13.60;;
36651;SDS011;53334;51.976;20.144;2022-11-02T12:36:49;22.57;;;13.90;;
36651;SDS011;53334;51.976;20.144;2022-11-02T12:39:59;18.63;;;12.50;;
36651;SDS011;53334;51.976;20.144;2022-11-02T12:42:46;18.35;;;12.15;;
36651;SDS011;53334;51.976;20.144;2022-11-02T12:45:31;18.90;;;13.57;;
36651;SDS011;53334;51.976;20.144;2022-11-02T12:48:13;23.00;;;13.45;;
36651;SDS011;53334;51.976;20.144;2022-11-02T12:50:56;17.40;;;12.05;;
36651;SDS011;53334;51.976;20.144;2022-11-02T12:53:35;17.08;;;11.95;;
36651;SDS011;53334;51.976;20.144;2022-11-02T12:56:18;14.77;;;11.70;;
36651;SDS011;53334;51.976;20.144;2022-11-02T12:58:54;17.98;;;11.27;;
36651;SDS011;53334;51.976;20.144;2022-11-02T13:01:33;15.45;;;10.90;;
36651;SDS011;53334;51.976;20.144;2022-11-02T13:04:12;23.10;;;11.77;;
36651;SDS011;53334;51.976;20.144;2022-11-02T13:07:00;23.02;;;9.93;;
36651;SDS011;53334;51.976;20.144;2022-11-02T13:09:38;18.60;;;11.10;;
36651;SDS011;53334;51.976;20.144;2022-11-02T13:14:56;15.48;;;10.30;;
36651;SDS011;53334;51.976;20.144;2022-11-02T13:17:36;15.68;;;10.70;;
36651;SDS011;53334;51.976;20.144;2022-11-02T13:20:14;22.00;;;10.95;;
36651;SDS011;53334;51.976;20.144;2022-11-02T13:22:54;18.98;;;10.48;;
36651;SDS011;53334;51.976;20.144;2022-11-02T13:25:33;13.68;;;9.15;;
36651;SDS011;53334;51.976;20.144;2022-11-02T13:28:11;20.95;;;10.38;;
36651;SDS011;53334;51.976;20.144;2022-11-02T13:30:49;15.20;;;9.02;;
36651;SDS011;53334;51.976;20.144;2022-11-02T13:33:28;15.55;;;10.57;;
36651;SDS011;53334;51.976;20.144;2022-11-02T13:36:07;15.75;;;10.00;;
36651;SDS011;53334;51.976;20.144;2022-11-02T13:38:43;13.35;;;9.30;;
36651;SDS011;53334;51.976;20.144;2022-11-02T13:41:31;12.63;;;8.98;;
36651;SDS011;53334;51.976;20.144;2022-11-02T13:44:24;12.80;;;9.52;;
36651;SDS011;53334;51.976;20.144;2022-11-02T13:47:22;13.27;;;8.52;;
36651;SDS011;53334;51.976;20.144;2022-11-02T13:50:21;12.65;;;8.55;;
36651;SDS011;53334;51.976;20.144;2022-11-02T13:52:59;12.00;;;9.05;;
36651;SDS011;53334;51.976;20.144;2022-11-02T13:55:38;10.80;;;7.78;;
36651;SDS011;53334;51.976;20.144;2022-11-02T13:58:19;14.95;;;7.65;;
36651;SDS011;53334;51.976;20.144;2022-11-02T14:00:57;15.13;;;7.90;;
36651;SDS011;53334;51.976;20.144;2022-11-02T14:03:40;11.93;;;7.22;;
36651;SDS011;53334;51.976;20.144;2022-11-02T14:06:22;14.23;;;6.80;;
36651;SDS011;53334;51.976;20.144;2022-11-02T14:08:58;12.00;;;7.50;;
36651;SDS011;53334;51.976;20.144;2022-11-02T14:11:35;19.40;;;7.15;;
36651;SDS011;53334;51.976;20.144;2022-11-02T14:14:21;13.80;;;6.82;;
36651;SDS011;53334;51.976;20.144;2022-11-02T14:16:56;12.98;;;6.47;;
36651;SDS011;53334;51.976;20.144;2022-11-02T14:19:52;11.05;;;5.55;;
36651;SDS011;53334;51.976;20.144;2022-11-02T14:22:29;11.27;;;6.45;;
36651;SDS011;53334;51.976;20.144;2022-11-02T14:25:13;15.90;;;6.40;;
36651;SDS011;53334;51.976;20.144;2022-11-02T14:27:49;9.20;;;6.57;;
36651;SDS011;53334;51.976;20.144;2022-11-02T14:30:42;9.82;;;6.93;;
36651;SDS011;53334;51.976;20.144;2022-11-02T14:33:23;11.68;;;6.32;;
36651;SDS011;53334;51.976;20.144;2022-11-02T14:36:08;12.48;;;6.18;;
36651;SDS011;53334;51.976;20.144;2022-11-02T14:38:54;13.43;;;6.18;;
36651;SDS011;53334;51.976;20.144;2022-11-02T14:41:43;8.63;;;5.32;;
36651;SDS011;53334;51.976;20.144;2022-11-02T14:47:40;16.58;;;6.13;;
36651;SDS011;53334;51.976;20.144;2022-11-02T14:50:15;9.90;;;6.05;;
36651;SDS011;53334;51.976;20.144;2022-11-02T14:52:53;10.30;;;6.18;;
36651;SDS011;53334;51.976;20.144;2022-11-02T14:55:31;11.82;;;5.90;;
36651;SDS011;53334;51.976;20.144;2022-11-02T14:58:07;10.27;;;5.95;;
36651;SDS011;53334;51.976;20.144;2022-11-02T15:00:54;9.90;;;6.03;;
36651;SDS011;53334;51.976;20.144;2022-11-02T15:03:33;11.32;;;5.70;;
36651;SDS011;53334;51.976;20.144;2022-11-02T15:06:12;10.98;;;6.15;;
36651;SDS011;53334;51.976;20.144;2022-11-02T15:08:51;14.30;;;6.05;;
36651;SDS011;53334;51.976;20.144;2022-11-02T15:11:44;9.70;;;5.30;;
36651;SDS011;53334;51.976;20.144;2022-11-02T15:14:29;7.70;;;5.50;;
36651;SDS011;53334;51.976;20.144;2022-11-02T15:23:11;12.40;;;6.68;;
36651;SDS011;53334;51.976;20.144;2022-11-02T15:26:03;7.65;;;5.40;;
36651;SDS011;53334;51.976;20.144;2022-11-02T15:28:39;10.60;;;5.50;;
36651;SDS011;53334;51.976;20.144;2022-11-02T15:31:17;12.30;;;6.68;;
36651;SDS011;53334;51.976;20.144;2022-11-02T15:33:57;9.00;;;6.53;;
36651;SDS011;53334;51.976;20.144;2022-11-02T15:36:35;8.25;;;5.90;;
36651;SDS011;53334;51.976;20.144;2022-11-02T15:39:10;10.85;;;5.68;;
36651;SDS011;53334;51.976;20.144;2022-11-02T15:41:45;9.77;;;5.93;;
36651;SDS011;53334;51.976;20.144;2022-11-02T15:44:49;20.42;;;6.25;;
36651;SDS011;53334;51.976;20.144;2022-11-02T15:47:56;14.95;;;6.60;;
36651;SDS011;53334;51.976;20.144;2022-11-02T15:50:39;10.20;;;5.70;;
36651;SDS011;53334;51.976;20.144;2022-11-02T15:53:29;11.43;;;6.55;;
36651;SDS011;53334;51.976;20.144;2022-11-02T15:56:20;21.33;;;6.55;;
36651;SDS011;53334;51.976;20.144;2022-11-02T15:59:09;9.50;;;6.05;;
36651;SDS011;53334;51.976;20.144;2022-11-02T16:02:19;15.80;;;6.28;;
36651;SDS011;53334;51.976;20.144;2022-11-02T16:04:57;12.68;;;6.28;;
36651;SDS011;53334;51.976;20.144;2022-11-02T16:07:33;15.65;;;5.93;;
36651;SDS011;53334;51.976;20.144;2022-11-02T16:10:29;11.65;;;7.72;;
36651;SDS011;53334;51.976;20.144;2022-11-02T16:13:12;22.80;;;7.88;;
36651;SDS011;53334;51.976;20.144;2022-11-02T16:15:48;16.25;;;7.90;;
36651;SDS011;53334;51.976;20.144;2022-11-02T16:18:24;12.32;;;7.72;;
36651;SDS011;53334;51.976;20.144;2022-11-02T16:21:00;14.23;;;8.02;;
36651;SDS011;53334;51.976;20.144;2022-11-02T16:23:38;16.77;;;7.90;;
36651;SDS011;53334;51.976;20.144;2022-11-02T16:26:14;10.73;;;7.80;;
36651;SDS011;53334;51.976;20.144;2022-11-02T16:28:53;14.43;;;7.57;;
36651;SDS011;53334;51.976;20.144;2022-11-02T16:31:28;12.35;;;7.18;;
36651;SDS011;53334;51.976;20.144;2022-11-02T16:34:18;15.57;;;9.10;;
36651;SDS011;53334;51.976;20.144;2022-11-02T16:36:54;17.00;;;7.75;;
36651;SDS011;53334;51.976;20.144;2022-11-02T16:39:30;21.08;;;7.13;;
36651;SDS011;53334;51.976;20.144;2022-11-02T16:42:09;22.45;;;7.10;;
36651;SDS011;53334;51.976;20.144;2022-11-02T16:44:53;13.52;;;7.07;;
36651;SDS011;53334;51.976;20.144;2022-11-02T16:47:36;14.65;;;7.40;;
36651;SDS011;53334;51.976;20.144;2022-11-02T16:50:21;15.65;;;7.93;;
36651;SDS011;53334;51.976;20.144;2022-11-02T16:52:56;24.92;;;8.68;;
36651;SDS011;53334;51.976;20.144;2022-11-02T16:55:36;20.98;;;7.90;;
36651;SDS011;53334;51.976;20.144;2022-11-02T16:58:13;17.48;;;7.88;;
36651;SDS011;53334;51.976;20.144;2022-11-02T17:00:51;18.13;;;7.82;;
36651;SDS011;53334;51.976;20.144;2022-11-02T17:03:28;20.35;;;8.15;;
36651;SDS011;53334;51.976;20.144;2022-11-02T17:06:05;22.67;;;8.55;;
36651;SDS011;53334;51.976;20.144;2022-11-02T17:08:40;16.58;;;6.72;;
36651;SDS011;53334;51.976;20.144;2022-11-02T17:11:16;16.33;;;8.18;;
36651;SDS011;53334;51.976;20.144;2022-11-02T17:13:51;24.55;;;9.02;;
36651;SDS011;53334;51.976;20.144;2022-11-02T17:16:29;22.33;;;8.77;;
36651;SDS011;53334;51.976;20.144;2022-11-02T17:19:08;22.63;;;8.38;;
36651;SDS011;53334;51.976;20.144;2022-11-02T17:22:23;22.08;;;8.68;;
36651;SDS011;53334;51.976;20.144;2022-11-02T17:25:03;26.85;;;8.90;;
36651;SDS011;53334;51.976;20.144;2022-11-02T17:27:44;16.38;;;7.13;;
36651;SDS011;53334;51.976;20.144;2022-11-02T17:33:19;29.70;;;8.50;;
36651;SDS011;53334;51.976;20.144;2022-11-02T17:36:03;22.25;;;8.23;;
36651;SDS011;53334;51.976;20.144;2022-11-02T17:38:43;17.42;;;8.52;;
36651;SDS011;53334;51.976;20.144;2022-11-02T17:41:17;24.67;;;9.35;;
36651;SDS011;53334;51.976;20.144;2022-11-02T17:44:12;23.17;;;9.65;;
36651;SDS011;53334;51.976;20.144;2022-11-02T17:46:48;29.48;;;10.85;;
36651;SDS011;53334;51.976;20.144;2022-11-02T17:49:22;21.23;;;10.23;;
36651;SDS011;53334;51.976;20.144;2022-11-02T17:51:56;20.55;;;10.40;;
36651;SDS011;53334;51.976;20.144;2022-11-02T17:54:32;27.15;;;11.77;;
36651;SDS011;53334;51.976;20.144;2022-11-02T17:57:07;25.17;;;10.13;;
36651;SDS011;53334;51.976;20.144;2022-11-02T17:59:45;27.30;;;8.88;;
36651;SDS011;53334;51.976;20.144;2022-11-02T18:02:19;24.08;;;10.80;;
36651;SDS011;53334;51.976;20.144;2022-11-02T18:04:53;20.60;;;9.50;;
36651;SDS011;53334;51.976;20.144;2022-11-02T18:07:27;20.92;;;9.95;;
36651;SDS011;53334;51.976;20.144;2022-11-02T18:10:02;21.80;;;11.18;;
36651;SDS011;53334;51.976;20.144;2022-11-02T18:12:36;19.13;;;9.90;;
36651;SDS011;53334;51.976;20.144;2022-11-02T18:17:47;26.38;;;9.70;;
36651;SDS011;53334;51.976;20.144;2022-11-02T18:20:21;22.42;;;10.18;;
36651;SDS011;53334;51.976;20.144;2022-11-02T18:22:58;19.35;;;10.18;;
36651;SDS011;53334;51.976;20.144;2022-11-02T18:25:34;21.65;;;10.15;;
36651;SDS011;53334;51.976;20.144;2022-11-02T18:28:08;19.83;;;9.00;;
36651;SDS011;53334;51.976;20.144;2022-11-02T18:30:42;21.63;;;8.85;;
36651;SDS011;53334;51.976;20.144;2022-11-02T18:33:16;21.15;;;9.48;;
36651;SDS011;53334;51.976;20.144;2022-11-02T18:35:50;19.20;;;9.43;;
36651;SDS011;53334;51.976;20.144;2022-11-02T18:38:24;15.20;;;8.02;;
36651;SDS011;53334;51.976;20.144;2022-11-02T18:41:02;22.77;;;8.77;;
36651;SDS011;53334;51.976;20.144;2022-11-02T18:43:58;19.98;;;8.15;;
36651;SDS011;53334;51.976;20.144;2022-11-02T18:46:39;22.85;;;8.63;;
36651;SDS011;53334;51.976;20.144;2022-11-02T18:49:13;19.63;;;8.90;;
36651;SDS011;53334;51.976;20.144;2022-11-02T18:54:21;20.30;;;9.40;;
36651;SDS011;53334;51.976;20.144;2022-11-02T18:56:56;26.10;;;9.05;;
36651;SDS011;53334;51.976;20.144;2022-11-02T18:59:30;24.15;;;8.57;;
36651;SDS011;53334;51.976;20.144;2022-11-02T19:02:05;18.73;;;7.47;;
36651;SDS011;53334;51.976;20.144;2022-11-02T19:04:39;18.17;;;7.70;;
36651;SDS011;53334;51.976;20.144;2022-11-02T19:07:13;17.08;;;7.75;;
36651;SDS011;53334;51.976;20.144;2022-11-02T19:10:05;19.52;;;8.02;;
36651;SDS011;53334;51.976;20.144;2022-11-02T19:12:40;17.08;;;7.32;;
36651;SDS011;53334;51.976;20.144;2022-11-02T19:15:15;19.38;;;8.80;;
36651;SDS011;53334;51.976;20.144;2022-11-02T19:17:49;17.25;;;7.78;;
36651;SDS011;53334;51.976;20.144;2022-11-02T19:20:23;13.70;;;7.40;;
36651;SDS011;53334;51.976;20.144;2022-11-02T19:22:58;17.25;;;7.88;;
36651;SDS011;53334;51.976;20.144;2022-11-02T19:25:32;14.63;;;7.07;;
36651;SDS011;53334;51.976;20.144;2022-11-02T19:28:08;14.05;;;7.28;;
36651;SDS011;53334;51.976;20.144;2022-11-02T19:30:44;20.55;;;7.80;;
36651;SDS011;53334;51.976;20.144;2022-11-02T19:33:18;19.23;;;8.23;;
36651;SDS011;53334;51.976;20.144;2022-11-02T19:35:53;14.20;;;7.68;;
36651;SDS011;53334;51.976;20.144;2022-11-02T19:38:27;20.65;;;8.32;;
36651;SDS011;53334;51.976;20.144;2022-11-02T19:41:02;21.10;;;8.93;;
36651;SDS011;53334;51.976;20.144;2022-11-02T19:43:39;22.98;;;8.13;;
36651;SDS011;53334;51.976;20.144;2022-11-02T19:46:15;16.58;;;8.35;;
36651;SDS011;53334;51.976;20.144;2022-11-02T19:48:51;27.92;;;9.00;;
36651;SDS011;53334;51.976;20.144;2022-11-02T19:51:26;23.95;;;8.10;;
36651;SDS011;53334;51.976;20.144;2022-11-02T19:54:01;27.17;;;9.00;;
36651;SDS011;53334;51.976;20.144;2022-11-02T19:56:35;22.48;;;8.80;;
36651;SDS011;53334;51.976;20.144;2022-11-02T19:59:11;26.80;;;8.45;;
36651;SDS011;53334;51.976;20.144;2022-11-02T20:01:45;24.55;;;8.65;;
36651;SDS011;53334;51.976;20.144;2022-11-02T20:04:21;15.70;;;7.50;;
36651;SDS011;53334;51.976;20.144;2022-11-02T20:06:55;25.80;;;8.48;;
36651;SDS011;53334;51.976;20.144;2022-11-02T20:09:30;22.05;;;8.38;;
36651;SDS011;53334;51.976;20.144;2022-11-02T20:12:04;22.13;;;9.13;;
36651;SDS011;53334;51.976;20.144;2022-11-02T20:14:40;24.77;;;7.78;;
36651;SDS011;53334;51.976;20.144;2022-11-02T20:17:14;22.65;;;8.13;;
36651;SDS011;53334;51.976;20.144;2022-11-02T20:20:06;20.30;;;8.13;;
36651;SDS011;53334;51.976;20.144;2022-11-02T20:22:41;18.50;;;8.85;;
36651;SDS011;53334;51.976;20.144;2022-11-02T20:25:16;24.23;;;9.13;;
36651;SDS011;53334;51.976;20.144;2022-11-02T20:27:50;28.23;;;9.35;;
36651;SDS011;53334;51.976;20.144;2022-11-02T20:30:25;26.60;;;8.52;;
36651;SDS011;53334;51.976;20.144;2022-11-02T20:33:00;21.95;;;8.60;;
36651;SDS011;53334;51.976;20.144;2022-11-02T20:35:34;25.48;;;9.30;;
36651;SDS011;53334;51.976;20.144;2022-11-02T20:38:09;21.55;;;7.78;;
36651;SDS011;53334;51.976;20.144;2022-11-02T20:40:43;24.52;;;9.98;;
36651;SDS011;53334;51.976;20.144;2022-11-02T20:43:17;24.95;;;8.85;;
36651;SDS011;53334;51.976;20.144;2022-11-02T20:45:59;28.25;;;9.68;;
36651;SDS011;53334;51.976;20.144;2022-11-02T20:48:55;23.17;;;8.52;;
36651;SDS011;53334;51.976;20.144;2022-11-02T20:51:51;32.45;;;8.98;;
36651;SDS011;53334;51.976;20.144;2022-11-02T20:54:25;32.08;;;9.98;;
36651;SDS011;53334;51.976;20.144;2022-11-02T20:57:00;41.92;;;10.40;;
36651;SDS011;53334;51.976;20.144;2022-11-02T20:59:34;25.27;;;8.95;;
36651;SDS011;53334;51.976;20.144;2022-11-02T21:02:10;22.38;;;8.70;;
36651;SDS011;53334;51.976;20.144;2022-11-02T21:04:44;30.10;;;9.15;;
36651;SDS011;53334;51.976;20.144;2022-11-02T21:07:18;21.85;;;7.57;;
36651;SDS011;53334;51.976;20.144;2022-11-02T21:09:53;26.60;;;8.52;;
36651;SDS011;53334;51.976;20.144;2022-11-02T21:12:27;20.92;;;8.10;;
36651;SDS011;53334;51.976;20.144;2022-11-02T21:15:18;20.98;;;7.35;;
36651;SDS011;53334;51.976;20.144;2022-11-02T21:17:54;25.08;;;8.13;;
36651;SDS011;53334;51.976;20.144;2022-11-02T21:20:28;22.75;;;7.82;;
36651;SDS011;53334;51.976;20.144;2022-11-02T21:23:05;38.05;;;9.90;;
36651;SDS011;53334;51.976;20.144;2022-11-02T21:25:40;38.35;;;9.82;;
36651;SDS011;53334;51.976;20.144;2022-11-02T21:28:14;31.50;;;8.15;;
36651;SDS011;53334;51.976;20.144;2022-11-02T21:30:48;27.45;;;8.95;;
36651;SDS011;53334;51.976;20.144;2022-11-02T21:33:24;31.02;;;7.97;;
36651;SDS011;53334;51.976;20.144;2022-11-02T21:35:58;30.48;;;9.05;;
36651;SDS011;53334;51.976;20.144;2022-11-02T21:38:33;48.33;;;9.15;;
36651;SDS011;53334;51.976;20.144;2022-11-02T21:41:08;27.35;;;7.72;;
36651;SDS011;53334;51.976;20.144;2022-11-02T21:43:42;29.35;;;9.15;;
36651;SDS011;53334;51.976;20.144;2022-11-02T21:46:17;27.60;;;7.60;;
36651;SDS011;53334;51.976;20.144;2022-11-02T21:48:53;27.63;;;8.38;;
36651;SDS011;53334;51.976;20.144;2022-11-02T21:51:28;30.70;;;8.25;;
36651;SDS011;53334;51.976;20.144;2022-11-02T21:54:02;30.50;;;8.07;;
36651;SDS011;53334;51.976;20.144;2022-11-02T21:56:36;30.85;;;8.38;;
36651;SDS011;53334;51.976;20.144;2022-11-02T21:59:10;26.10;;;8.02;;
36651;SDS011;53334;51.976;20.144;2022-11-02T22:01:44;30.67;;;7.45;;
36651;SDS011;53334;51.976;20.144;2022-11-02T22:04:22;31.67;;;8.52;;
36651;SDS011;53334;51.976;20.144;2022-11-02T22:06:59;28.45;;;7.60;;
36651;SDS011;53334;51.976;20.144;2022-11-02T22:09:34;30.67;;;8.68;;
36651;SDS011;53334;51.976;20.144;2022-11-02T22:12:08;27.48;;;8.25;;
36651;SDS011;53334;51.976;20.144;2022-11-02T22:14:59;24.38;;;7.40;;
36651;SDS011;53334;51.976;20.144;2022-11-02T22:17:34;21.67;;;8.20;;
36651;SDS011;53334;51.976;20.144;2022-11-02T22:20:22;26.75;;;7.35;;
36651;SDS011;53334;51.976;20.144;2022-11-02T22:22:56;29.52;;;7.85;;
36651;SDS011;53334;51.976;20.144;2022-11-02T22:25:30;32.67;;;8.25;;
36651;SDS011;53334;51.976;20.144;2022-11-02T22:28:04;33.40;;;8.10;;
36651;SDS011;53334;51.976;20.144;2022-11-02T22:30:38;35.20;;;8.75;;
36651;SDS011;53334;51.976;20.144;2022-11-02T22:33:12;34.58;;;7.65;;
36651;SDS011;53334;51.976;20.144;2022-11-02T22:35:48;32.03;;;8.65;;
36651;SDS011;53334;51.976;20.144;2022-11-02T22:38:22;29.20;;;7.18;;
36651;SDS011;53334;51.976;20.144;2022-11-02T22:41:13;29.20;;;7.45;;
36651;SDS011;53334;51.976;20.144;2022-11-02T22:43:48;31.25;;;7.78;;
36651;SDS011;53334;51.976;20.144;2022-11-02T22:46:24;18.55;;;6.00;;
36651;SDS011;53334;51.976;20.144;2022-11-02T22:48:59;32.88;;;7.30;;
36651;SDS011;53334;51.976;20.144;2022-11-02T22:51:37;33.92;;;7.80;;
36651;SDS011;53334;51.976;20.144;2022-11-02T22:54:13;27.35;;;7.45;;
36651;SDS011;53334;51.976;20.144;2022-11-02T22:56:48;26.63;;;7.72;;
36651;SDS011;53334;51.976;20.144;2022-11-02T22:59:22;29.08;;;8.05;;
36651;SDS011;53334;51.976;20.144;2022-11-02T23:01:56;31.52;;;7.90;;
36651;SDS011;53334;51.976;20.144;2022-11-02T23:04:31;31.52;;;7.72;;
36651;SDS011;53334;51.976;20.144;2022-11-02T23:07:06;26.77;;;7.93;;
36651;SDS011;53334;51.976;20.144;2022-11-02T23:09:41;28.95;;;8.23;;
36651;SDS011;53334;51.976;20.144;2022-11-02T23:12:16;31.48;;;8.52;;
36651;SDS011;53334;51.976;20.144;2022-11-02T23:14:49;28.10;;;7.00;;
36651;SDS011;53334;51.976;20.144;2022-11-02T23:17:23;31.90;;;8.23;;
36651;SDS011;53334;51.976;20.144;2022-11-02T23:19:58;30.70;;;7.70;;
36651;SDS011;53334;51.976;20.144;2022-11-02T23:22:32;28.90;;;8.30;;
36651;SDS011;53334;51.976;20.144;2022-11-02T23:25:24;25.65;;;8.60;;
36651;SDS011;53334;51.976;20.144;2022-11-02T23:27:58;29.80;;;7.53;;
36651;SDS011;53334;51.976;20.144;2022-11-02T23:30:53;29.48;;;8.25;;
36651;SDS011;53334;51.976;20.144;2022-11-02T23:33:44;33.35;;;8.98;;
36651;SDS011;53334;51.976;20.144;2022-11-02T23:36:18;43.88;;;9.02;;
36651;SDS011;53334;51.976;20.144;2022-11-02T23:38:53;32.20;;;8.52;;
36651;SDS011;53334;51.976;20.144;2022-11-02T23:41:45;37.90;;;8.00;;
36651;SDS011;53334;51.976;20.144;2022-11-02T23:44:19;36.75;;;8.00;;
36651;SDS011;53334;51.976;20.144;2022-11-02T23:46:53;34.85;;;7.93;;
36651;SDS011;53334;51.976;20.144;2022-11-02T23:49:27;25.48;;;8.60;;
36651;SDS011;53334;51.976;20.144;2022-11-02T23:52:01;31.58;;;8.35;;
36651;SDS011;53334;51.976;20.144;2022-11-02T23:54:54;36.60;;;7.70;;
36651;SDS011;53334;51.976;20.144;2022-11-02T23:57:45;48.67;;;8.50;;
